COOK1: Arkansas River Nr Coolidge, KS

Data processed at Fri Dec 08 2017 23:29


All information presented herein is the property of the government of the United States of America and may be revised or deleted at any time without prior notice.
Dissemination of this information without the expressed written consent of the Public Affairs Office, Tulsa District U.S. Army Corps of Engineers is strictly prohibited.
These data are gathered electronically and, as presented, have not undergone any form of quality control. These data are not guaranteed to be valid or correct.
Go to home page.
Go to station list.

Upstream stations:

Downstream station:
Previous Day
Next Day
Current Day
    
SHEF ID:       COOK1     ARKANSAS R NR COOLIDGE, KS
STATION TYPE:  

               PRECIP     STAGE  STAGE(2)  RIV-FLOW  WTR-TEMP   CONDUCT  BAT-LOAD
                   in        ft        ft       cfs         F   umho/cm      volt
              Ccp-Rev   Ccp-Rev   Ccp-Rev   Ccp-Rev   Ccp-Rev   Ccp-Rev   Ccp-Rev
(US/Central)
12/06 00:00      0.00      3.36      3.28       166     39.88      5528     12.83
12/06 01:00      0.00      3.38      3.31       169     39.45      5537     12.77
12/06 02:00      0.00      3.37      3.28       167     39.09      5537     12.77
12/06 03:00      0.00      3.37      3.31       167     38.68      5549     12.71
12/06 04:00      0.00      3.35      3.30       164     38.23      5555     12.65
12/06 05:00      0.00      3.36      3.28       166     37.78      5584     12.65
12/06 06:00      0.00      3.36      3.31       166     37.24      5594     12.60
12/06 07:00      0.00      3.36      3.31       166     36.79      5616     12.60
12/06 08:00      0.00      3.37      3.29       167     36.37      5634     12.60
12/06 09:00      0.00      3.37      3.30       167     36.01      5666     13.00
12/06 10:00      0.00      3.35      3.28       164     36.27      5659     13.59
12/06 11:00      0.00      3.36      3.30       166     37.06      5656     13.71
12/06 12:00      0.00      3.36      3.30       166     38.25      5641     13.77
12/06 13:00      0.00      3.36      3.29       166     39.58      5641     13.83
12/06 14:00      0.00      3.34      3.28       163     40.84      5630     13.83
12/06 15:00      0.00      3.33      3.30       161     41.70      6903     13.77
12/06 16:00      0.00      3.34      3.29       163     41.94      6881     13.71
12/06 17:00      0.00      3.33      3.31       161     41.61      6896     13.65
12/06 18:00      0.00      3.34      3.28       163     41.16      6892     13.18
12/06 19:00      0.00      3.35      3.29       164     40.53      6907     13.07
12/06 20:00      0.00      3.35      3.31       164     39.96      6910     13.00
12/06 21:00      0.00      3.33      3.30       161     39.36      6912     12.77
12/06 22:00      0.00      3.34      3.29       163     38.71      6923     12.89
12/06 23:00      0.00      3.30      3.24       157     38.10      6923     12.89